sensor_id;sensor_type;location;lat;lon;timestamp;P1;durP1;ratioP1;P2;durP2;ratioP2
62523;SDS011;53689;56.878;60.672;2022-07-12T00:00:19;35.10;;;20.10;;
62523;SDS011;53689;56.878;60.672;2022-07-12T00:02:48;25.08;;;19.77;;
62523;SDS011;53689;56.878;60.672;2022-07-12T00:05:16;26.70;;;19.42;;
62523;SDS011;53689;56.878;60.672;2022-07-12T00:07:44;26.75;;;19.45;;
62523;SDS011;53689;56.878;60.672;2022-07-12T00:10:11;26.70;;;19.65;;
62523;SDS011;53689;56.878;60.672;2022-07-12T00:12:39;30.10;;;20.55;;
62523;SDS011;53689;56.878;60.672;2022-07-12T00:15:07;25.13;;;19.55;;
62523;SDS011;53689;56.878;60.672;2022-07-12T00:17:35;23.25;;;19.67;;
62523;SDS011;53689;56.878;60.672;2022-07-12T00:20:05;26.58;;;21.02;;
62523;SDS011;53689;56.878;60.672;2022-07-12T00:22:33;28.23;;;21.50;;
62523;SDS011;53689;56.878;60.672;2022-07-12T00:25:00;28.73;;;23.02;;
62523;SDS011;53689;56.878;60.672;2022-07-12T00:27:28;29.50;;;24.08;;
62523;SDS011;53689;56.878;60.672;2022-07-12T00:29:56;27.25;;;22.70;;
62523;SDS011;53689;56.878;60.672;2022-07-12T00:32:23;32.05;;;24.70;;
62523;SDS011;53689;56.878;60.672;2022-07-12T00:34:51;29.67;;;23.65;;
62523;SDS011;53689;56.878;60.672;2022-07-12T00:37:19;35.75;;;24.05;;
62523;SDS011;53689;56.878;60.672;2022-07-12T00:39:47;42.08;;;24.98;;
62523;SDS011;53689;56.878;60.672;2022-07-12T00:42:15;37.72;;;24.80;;
62523;SDS011;53689;56.878;60.672;2022-07-12T00:44:42;32.45;;;23.42;;
62523;SDS011;53689;56.878;60.672;2022-07-12T00:47:15;33.28;;;23.33;;
62523;SDS011;53689;56.878;60.672;2022-07-12T00:49:49;32.83;;;23.83;;
62523;SDS011;53689;56.878;60.672;2022-07-12T00:52:16;31.98;;;23.58;;
62523;SDS011;53689;56.878;60.672;2022-07-12T00:54:46;33.20;;;22.83;;
62523;SDS011;53689;56.878;60.672;2022-07-12T00:57:14;32.65;;;23.50;;
62523;SDS011;53689;56.878;60.672;2022-07-12T00:59:42;27.17;;;22.88;;
62523;SDS011;53689;56.878;60.672;2022-07-12T01:02:09;26.17;;;22.38;;
62523;SDS011;53689;56.878;60.672;2022-07-12T01:04:36;29.20;;;21.80;;
62523;SDS011;53689;56.878;60.672;2022-07-12T01:07:07;27.67;;;22.58;;
62523;SDS011;53689;56.878;60.672;2022-07-12T01:09:35;26.67;;;21.45;;
62523;SDS011;53689;56.878;60.672;2022-07-12T01:12:04;27.90;;;21.55;;
62523;SDS011;53689;56.878;60.672;2022-07-12T01:14:32;25.38;;;20.02;;
62523;SDS011;53689;56.878;60.672;2022-07-12T01:17:01;26.17;;;20.92;;
62523;SDS011;53689;56.878;60.672;2022-07-12T01:19:30;24.73;;;19.90;;
62523;SDS011;53689;56.878;60.672;2022-07-12T01:21:59;25.93;;;21.03;;
62523;SDS011;53689;56.878;60.672;2022-07-12T01:24:30;24.48;;;20.20;;
62523;SDS011;53689;56.878;60.672;2022-07-12T01:26:57;176.00;;;159.65;;
62523;SDS011;53689;56.878;60.672;2022-07-12T01:29:25;522.28;;;467.08;;
62523;SDS011;53689;56.878;60.672;2022-07-12T01:31:53;400.77;;;357.17;;
62523;SDS011;53689;56.878;60.672;2022-07-12T01:34:20;68.72;;;59.42;;
62523;SDS011;53689;56.878;60.672;2022-07-12T01:36:48;42.17;;;32.58;;
62523;SDS011;53689;56.878;60.672;2022-07-12T01:39:16;63.22;;;48.75;;
62523;SDS011;53689;56.878;60.672;2022-07-12T01:41:45;45.10;;;35.58;;
62523;SDS011;53689;56.878;60.672;2022-07-12T01:44:12;38.65;;;27.27;;
62523;SDS011;53689;56.878;60.672;2022-07-12T01:46:40;34.47;;;28.30;;
62523;SDS011;53689;56.878;60.672;2022-07-12T01:49:07;28.10;;;22.55;;
62523;SDS011;53689;56.878;60.672;2022-07-12T01:51:35;28.77;;;24.10;;
62523;SDS011;53689;56.878;60.672;2022-07-12T01:54:02;23.27;;;20.77;;
62523;SDS011;53689;56.878;60.672;2022-07-12T01:56:30;24.17;;;19.75;;
62523;SDS011;53689;56.878;60.672;2022-07-12T01:58:59;29.38;;;22.45;;
62523;SDS011;53689;56.878;60.672;2022-07-12T02:01:27;26.15;;;22.83;;
62523;SDS011;53689;56.878;60.672;2022-07-12T02:03:55;25.52;;;22.05;;
62523;SDS011;53689;56.878;60.672;2022-07-12T02:06:23;29.83;;;21.75;;
62523;SDS011;53689;56.878;60.672;2022-07-12T02:08:51;29.55;;;23.38;;
62523;SDS011;53689;56.878;60.672;2022-07-12T02:11:19;38.28;;;23.73;;
62523;SDS011;53689;56.878;60.672;2022-07-12T02:13:46;31.70;;;23.08;;
62523;SDS011;53689;56.878;60.672;2022-07-12T02:16:15;29.23;;;23.60;;
62523;SDS011;53689;56.878;60.672;2022-07-12T02:18:43;34.80;;;26.42;;
62523;SDS011;53689;56.878;60.672;2022-07-12T02:21:11;41.00;;;28.55;;
62523;SDS011;53689;56.878;60.672;2022-07-12T02:23:38;38.47;;;26.52;;
62523;SDS011;53689;56.878;60.672;2022-07-12T02:26:06;31.33;;;24.73;;
62523;SDS011;53689;56.878;60.672;2022-07-12T02:28:33;33.33;;;25.67;;
62523;SDS011;53689;56.878;60.672;2022-07-12T02:31:01;29.67;;;23.95;;
62523;SDS011;53689;56.878;60.672;2022-07-12T02:33:30;31.83;;;21.98;;
62523;SDS011;53689;56.878;60.672;2022-07-12T02:35:57;28.25;;;22.13;;
62523;SDS011;53689;56.878;60.672;2022-07-12T02:38:25;24.45;;;19.48;;
62523;SDS011;53689;56.878;60.672;2022-07-12T02:40:53;23.95;;;19.00;;
62523;SDS011;53689;56.878;60.672;2022-07-12T02:43:20;25.02;;;19.05;;
62523;SDS011;53689;56.878;60.672;2022-07-12T02:45:48;24.80;;;19.73;;
62523;SDS011;53689;56.878;60.672;2022-07-12T02:48:16;25.95;;;19.50;;
62523;SDS011;53689;56.878;60.672;2022-07-12T02:50:45;24.17;;;18.65;;
62523;SDS011;53689;56.878;60.672;2022-07-12T02:53:13;23.50;;;19.13;;
62523;SDS011;53689;56.878;60.672;2022-07-12T02:55:41;24.48;;;19.38;;
62523;SDS011;53689;56.878;60.672;2022-07-12T02:58:08;22.88;;;18.65;;
62523;SDS011;53689;56.878;60.672;2022-07-12T03:00:36;20.33;;;16.98;;
62523;SDS011;53689;56.878;60.672;2022-07-12T03:03:03;20.92;;;17.55;;
62523;SDS011;53689;56.878;60.672;2022-07-12T03:05:31;19.65;;;15.80;;
62523;SDS011;53689;56.878;60.672;2022-07-12T03:08:00;21.15;;;18.10;;
62523;SDS011;53689;56.878;60.672;2022-07-12T03:10:28;21.17;;;17.60;;
62523;SDS011;53689;56.878;60.672;2022-07-12T03:12:55;21.35;;;16.83;;
62523;SDS011;53689;56.878;60.672;2022-07-12T03:15:22;20.75;;;16.33;;
62523;SDS011;53689;56.878;60.672;2022-07-12T03:17:50;20.50;;;16.48;;
62523;SDS011;53689;56.878;60.672;2022-07-12T03:20:17;18.45;;;16.40;;
62523;SDS011;53689;56.878;60.672;2022-07-12T03:22:45;21.77;;;17.15;;
62523;SDS011;53689;56.878;60.672;2022-07-12T03:25:14;22.67;;;16.63;;
62523;SDS011;53689;56.878;60.672;2022-07-12T03:27:41;19.02;;;16.77;;
62523;SDS011;53689;56.878;60.672;2022-07-12T03:30:10;19.92;;;17.25;;
62523;SDS011;53689;56.878;60.672;2022-07-12T03:32:38;19.33;;;16.95;;
62523;SDS011;53689;56.878;60.672;2022-07-12T03:35:07;19.87;;;16.33;;
62523;SDS011;53689;56.878;60.672;2022-07-12T03:37:44;17.60;;;15.52;;
62523;SDS011;53689;56.878;60.672;2022-07-12T03:40:14;20.60;;;15.95;;
62523;SDS011;53689;56.878;60.672;2022-07-12T03:42:42;20.70;;;16.63;;
62523;SDS011;53689;56.878;60.672;2022-07-12T03:45:10;29.60;;;16.88;;
62523;SDS011;53689;56.878;60.672;2022-07-12T03:47:38;32.25;;;19.45;;
62523;SDS011;53689;56.878;60.672;2022-07-12T03:50:06;29.08;;;18.38;;
62523;SDS011;53689;56.878;60.672;2022-07-12T03:52:35;30.30;;;20.90;;
62523;SDS011;53689;56.878;60.672;2022-07-12T03:55:03;27.50;;;19.42;;
62523;SDS011;53689;56.878;60.672;2022-07-12T03:57:33;27.13;;;19.30;;
62523;SDS011;53689;56.878;60.672;2022-07-12T04:00:00;26.65;;;18.45;;
62523;SDS011;53689;56.878;60.672;2022-07-12T04:04:57;35.22;;;20.75;;
62523;SDS011;53689;56.878;60.672;2022-07-12T04:07:24;41.92;;;24.85;;
62523;SDS011;53689;56.878;60.672;2022-07-12T04:09:51;40.08;;;29.92;;
62523;SDS011;53689;56.878;60.672;2022-07-12T04:12:19;37.53;;;27.58;;
62523;SDS011;53689;56.878;60.672;2022-07-12T04:14:48;31.98;;;23.45;;
62523;SDS011;53689;56.878;60.672;2022-07-12T04:17:15;30.65;;;23.65;;
62523;SDS011;53689;56.878;60.672;2022-07-12T04:19:42;25.70;;;20.20;;
62523;SDS011;53689;56.878;60.672;2022-07-12T04:22:10;24.58;;;20.52;;
62523;SDS011;53689;56.878;60.672;2022-07-12T04:24:37;25.23;;;19.92;;
62523;SDS011;53689;56.878;60.672;2022-07-12T04:27:05;25.05;;;19.42;;
62523;SDS011;53689;56.878;60.672;2022-07-12T04:29:32;24.25;;;18.52;;
62523;SDS011;53689;56.878;60.672;2022-07-12T04:32:01;25.92;;;19.23;;
62523;SDS011;53689;56.878;60.672;2022-07-12T04:34:29;25.33;;;18.15;;
62523;SDS011;53689;56.878;60.672;2022-07-12T04:36:56;19.88;;;17.05;;
62523;SDS011;53689;56.878;60.672;2022-07-12T04:39:23;24.70;;;18.42;;
62523;SDS011;53689;56.878;60.672;2022-07-12T04:41:51;25.92;;;21.02;;
62523;SDS011;53689;56.878;60.672;2022-07-12T04:44:18;25.73;;;20.00;;
62523;SDS011;53689;56.878;60.672;2022-07-12T04:46:46;22.15;;;18.10;;
62523;SDS011;53689;56.878;60.672;2022-07-12T04:49:15;21.40;;;17.83;;
62523;SDS011;53689;56.878;60.672;2022-07-12T04:51:43;21.23;;;16.80;;
62523;SDS011;53689;56.878;60.672;2022-07-12T04:54:10;23.80;;;17.92;;
62523;SDS011;53689;56.878;60.672;2022-07-12T04:56:38;21.98;;;17.92;;
62523;SDS011;53689;56.878;60.672;2022-07-12T04:59:05;21.67;;;18.15;;
62523;SDS011;53689;56.878;60.672;2022-07-12T05:01:33;19.65;;;16.08;;
62523;SDS011;53689;56.878;60.672;2022-07-12T05:04:00;24.20;;;17.35;;
62523;SDS011;53689;56.878;60.672;2022-07-12T05:06:29;34.33;;;28.73;;
62523;SDS011;53689;56.878;60.672;2022-07-12T05:08:56;32.72;;;25.55;;
62523;SDS011;53689;56.878;60.672;2022-07-12T05:11:24;29.27;;;22.13;;
62523;SDS011;53689;56.878;60.672;2022-07-12T05:13:51;31.63;;;24.02;;
62523;SDS011;53689;56.878;60.672;2022-07-12T05:16:19;26.38;;;22.23;;
62523;SDS011;53689;56.878;60.672;2022-07-12T05:18:46;26.58;;;20.02;;
62523;SDS011;53689;56.878;60.672;2022-07-12T05:21:14;28.55;;;19.83;;
62523;SDS011;53689;56.878;60.672;2022-07-12T05:23:43;30.63;;;20.25;;
62523;SDS011;53689;56.878;60.672;2022-07-12T05:26:10;26.15;;;19.85;;
62523;SDS011;53689;56.878;60.672;2022-07-12T05:28:42;38.08;;;26.52;;
62523;SDS011;53689;56.878;60.672;2022-07-12T05:31:10;45.13;;;29.10;;
62523;SDS011;53689;56.878;60.672;2022-07-12T05:33:37;49.88;;;31.52;;
62523;SDS011;53689;56.878;60.672;2022-07-12T05:36:05;45.88;;;29.45;;
62523;SDS011;53689;56.878;60.672;2022-07-12T05:38:32;41.25;;;28.77;;
62523;SDS011;53689;56.878;60.672;2022-07-12T05:41:01;41.17;;;26.75;;
62523;SDS011;53689;56.878;60.672;2022-07-12T05:43:28;40.15;;;28.15;;
62523;SDS011;53689;56.878;60.672;2022-07-12T05:45:56;43.05;;;30.50;;
62523;SDS011;53689;56.878;60.672;2022-07-12T05:48:23;38.72;;;27.75;;
62523;SDS011;53689;56.878;60.672;2022-07-12T05:50:51;34.13;;;25.23;;
62523;SDS011;53689;56.878;60.672;2022-07-12T05:53:18;42.67;;;31.33;;
62523;SDS011;53689;56.878;60.672;2022-07-12T05:55:46;40.70;;;29.52;;
62523;SDS011;53689;56.878;60.672;2022-07-12T05:58:15;44.08;;;30.58;;
62523;SDS011;53689;56.878;60.672;2022-07-12T06:00:42;39.92;;;29.88;;
62523;SDS011;53689;56.878;60.672;2022-07-12T06:03:10;48.90;;;35.35;;
62523;SDS011;53689;56.878;60.672;2022-07-12T06:05:37;53.72;;;37.40;;
62523;SDS011;53689;56.878;60.672;2022-07-12T06:08:05;35.75;;;26.77;;
62523;SDS011;53689;56.878;60.672;2022-07-12T06:10:33;40.22;;;27.58;;
62523;SDS011;53689;56.878;60.672;2022-07-12T06:13:00;36.47;;;26.92;;
62523;SDS011;53689;56.878;60.672;2022-07-12T06:15:29;32.13;;;24.85;;
62523;SDS011;53689;56.878;60.672;2022-07-12T06:18:00;41.58;;;29.33;;
62523;SDS011;53689;56.878;60.672;2022-07-12T06:20:28;47.28;;;33.40;;
62523;SDS011;53689;56.878;60.672;2022-07-12T06:22:55;45.78;;;33.22;;
62523;SDS011;53689;56.878;60.672;2022-07-12T06:25:23;33.30;;;26.15;;
62523;SDS011;53689;56.878;60.672;2022-07-12T06:28:09;41.47;;;30.77;;
62523;SDS011;53689;56.878;60.672;2022-07-12T06:30:38;36.38;;;29.83;;
62523;SDS011;53689;56.878;60.672;2022-07-12T06:33:06;40.72;;;28.27;;
62523;SDS011;53689;56.878;60.672;2022-07-12T06:35:33;30.80;;;23.60;;
62523;SDS011;53689;56.878;60.672;2022-07-12T06:38:01;41.53;;;29.75;;
62523;SDS011;53689;56.878;60.672;2022-07-12T06:40:29;33.55;;;26.50;;
62523;SDS011;53689;56.878;60.672;2022-07-12T06:42:56;53.28;;;34.67;;
62523;SDS011;53689;56.878;60.672;2022-07-12T06:45:24;38.78;;;28.13;;
62523;SDS011;53689;56.878;60.672;2022-07-12T06:47:53;34.33;;;24.83;;
62523;SDS011;53689;56.878;60.672;2022-07-12T06:50:21;38.88;;;28.77;;
62523;SDS011;53689;56.878;60.672;2022-07-12T06:52:48;34.85;;;26.48;;
62523;SDS011;53689;56.878;60.672;2022-07-12T06:55:16;46.50;;;32.75;;
62523;SDS011;53689;56.878;60.672;2022-07-12T06:57:44;43.65;;;31.17;;
62523;SDS011;53689;56.878;60.672;2022-07-12T07:00:11;45.33;;;32.00;;
62523;SDS011;53689;56.878;60.672;2022-07-12T07:02:39;47.38;;;33.25;;
62523;SDS011;53689;56.878;60.672;2022-07-12T07:05:08;45.08;;;32.08;;
62523;SDS011;53689;56.878;60.672;2022-07-12T07:07:36;52.63;;;34.05;;
62523;SDS011;53689;56.878;60.672;2022-07-12T07:10:03;48.17;;;33.90;;
62523;SDS011;53689;56.878;60.672;2022-07-12T07:12:32;54.53;;;35.85;;
62523;SDS011;53689;56.878;60.672;2022-07-12T07:14:59;52.92;;;35.38;;
62523;SDS011;53689;56.878;60.672;2022-07-12T07:17:26;49.55;;;34.47;;
62523;SDS011;53689;56.878;60.672;2022-07-12T07:19:54;43.25;;;31.38;;
62523;SDS011;53689;56.878;60.672;2022-07-12T07:22:23;49.35;;;32.58;;
62523;SDS011;53689;56.878;60.672;2022-07-12T07:24:50;33.28;;;24.90;;
62523;SDS011;53689;56.878;60.672;2022-07-12T07:27:17;42.22;;;29.80;;
62523;SDS011;53689;56.878;60.672;2022-07-12T07:29:45;49.83;;;32.83;;
62523;SDS011;53689;56.878;60.672;2022-07-12T07:32:12;45.28;;;31.65;;
62523;SDS011;53689;56.878;60.672;2022-07-12T07:34:40;46.67;;;32.05;;
62523;SDS011;53689;56.878;60.672;2022-07-12T07:37:07;39.08;;;27.45;;
62523;SDS011;53689;56.878;60.672;2022-07-12T07:39:36;37.85;;;27.73;;
62523;SDS011;53689;56.878;60.672;2022-07-12T07:42:04;33.65;;;25.02;;
62523;SDS011;53689;56.878;60.672;2022-07-12T07:44:32;41.58;;;28.33;;
62523;SDS011;53689;56.878;60.672;2022-07-12T07:47:00;38.38;;;27.30;;
62523;SDS011;53689;56.878;60.672;2022-07-12T07:49:27;37.65;;;25.98;;
62523;SDS011;53689;56.878;60.672;2022-07-12T07:51:55;33.67;;;22.52;;
62523;SDS011;53689;56.878;60.672;2022-07-12T07:54:22;31.27;;;22.60;;
62523;SDS011;53689;56.878;60.672;2022-07-12T07:56:51;29.92;;;21.13;;
62523;SDS011;53689;56.878;60.672;2022-07-12T07:59:23;26.17;;;19.67;;
62523;SDS011;53689;56.878;60.672;2022-07-12T08:01:50;26.15;;;20.73;;
62523;SDS011;53689;56.878;60.672;2022-07-12T08:04:18;23.85;;;18.42;;
62523;SDS011;53689;56.878;60.672;2022-07-12T08:09:15;21.48;;;16.52;;
62523;SDS011;53689;56.878;60.672;2022-07-12T08:11:43;21.52;;;15.75;;
62523;SDS011;53689;56.878;60.672;2022-07-12T08:14:12;21.05;;;16.52;;
62523;SDS011;53689;56.878;60.672;2022-07-12T08:16:39;18.88;;;14.80;;
62523;SDS011;53689;56.878;60.672;2022-07-12T08:19:07;17.05;;;13.98;;
62523;SDS011;53689;56.878;60.672;2022-07-12T08:21:34;15.65;;;13.82;;
62523;SDS011;53689;56.878;60.672;2022-07-12T08:24:02;17.85;;;14.15;;
62523;SDS011;53689;56.878;60.672;2022-07-12T08:26:29;20.42;;;15.35;;
62523;SDS011;53689;56.878;60.672;2022-07-12T08:28:57;18.00;;;14.75;;
62523;SDS011;53689;56.878;60.672;2022-07-12T08:31:26;16.92;;;14.30;;
62523;SDS011;53689;56.878;60.672;2022-07-12T08:33:53;18.67;;;14.70;;
62523;SDS011;53689;56.878;60.672;2022-07-12T08:36:20;17.60;;;14.48;;
62523;SDS011;53689;56.878;60.672;2022-07-12T08:38:48;17.95;;;13.15;;
62523;SDS011;53689;56.878;60.672;2022-07-12T08:41:15;16.20;;;13.50;;
62523;SDS011;53689;56.878;60.672;2022-07-12T08:43:43;14.73;;;13.18;;
62523;SDS011;53689;56.878;60.672;2022-07-12T08:46:14;17.15;;;13.73;;
62523;SDS011;53689;56.878;60.672;2022-07-12T08:48:43;16.58;;;13.65;;
62523;SDS011;53689;56.878;60.672;2022-07-12T08:51:11;16.17;;;13.25;;
62523;SDS011;53689;56.878;60.672;2022-07-12T08:53:40;13.90;;;12.40;;
62523;SDS011;53689;56.878;60.672;2022-07-12T08:56:29;13.30;;;11.90;;
62523;SDS011;53689;56.878;60.672;2022-07-12T08:59:13;14.38;;;11.98;;
62523;SDS011;53689;56.878;60.672;2022-07-12T09:01:42;13.25;;;11.32;;
62523;SDS011;53689;56.878;60.672;2022-07-12T09:04:13;13.30;;;11.90;;
62523;SDS011;53689;56.878;60.672;2022-07-12T09:06:41;14.20;;;12.73;;
62523;SDS011;53689;56.878;60.672;2022-07-12T09:09:09;12.30;;;10.48;;
62523;SDS011;53689;56.878;60.672;2022-07-12T09:11:37;18.15;;;11.65;;
62523;SDS011;53689;56.878;60.672;2022-07-12T09:14:05;12.90;;;11.35;;
62523;SDS011;53689;56.878;60.672;2022-07-12T09:16:33;12.40;;;11.10;;
62523;SDS011;53689;56.878;60.672;2022-07-12T09:19:11;13.20;;;11.55;;
62523;SDS011;53689;56.878;60.672;2022-07-12T09:21:45;12.48;;;11.10;;
62523;SDS011;53689;56.878;60.672;2022-07-12T09:24:14;13.80;;;11.70;;
62523;SDS011;53689;56.878;60.672;2022-07-12T09:26:42;16.52;;;12.73;;
62523;SDS011;53689;56.878;60.672;2022-07-12T09:29:11;15.55;;;12.57;;
62523;SDS011;53689;56.878;60.672;2022-07-12T09:31:40;17.00;;;13.35;;
62523;SDS011;53689;56.878;60.672;2022-07-12T09:34:09;15.80;;;13.02;;
62523;SDS011;53689;56.878;60.672;2022-07-12T09:36:38;14.85;;;13.20;;
62523;SDS011;53689;56.878;60.672;2022-07-12T09:39:05;18.08;;;14.30;;
62523;SDS011;53689;56.878;60.672;2022-07-12T09:41:33;20.38;;;13.40;;
62523;SDS011;53689;56.878;60.672;2022-07-12T09:44:00;16.10;;;12.70;;
62523;SDS011;53689;56.878;60.672;2022-07-12T09:46:29;17.43;;;12.87;;
62523;SDS011;53689;56.878;60.672;2022-07-12T09:48:59;16.08;;;12.23;;
62523;SDS011;53689;56.878;60.672;2022-07-12T09:51:27;15.05;;;12.20;;
62523;SDS011;53689;56.878;60.672;2022-07-12T09:53:58;15.85;;;12.75;;
62523;SDS011;53689;56.878;60.672;2022-07-12T09:56:30;16.52;;;12.50;;
62523;SDS011;53689;56.878;60.672;2022-07-12T09:59:02;18.08;;;13.38;;
62523;SDS011;53689;56.878;60.672;2022-07-12T10:01:32;19.35;;;13.43;;
62523;SDS011;53689;56.878;60.672;2022-07-12T10:04:00;16.83;;;12.80;;
62523;SDS011;53689;56.878;60.672;2022-07-12T10:06:29;17.33;;;12.13;;
62523;SDS011;53689;56.878;60.672;2022-07-12T10:09:03;22.33;;;13.85;;
62523;SDS011;53689;56.878;60.672;2022-07-12T10:11:32;23.27;;;14.27;;
62523;SDS011;53689;56.878;60.672;2022-07-12T10:14:20;22.70;;;14.75;;
62523;SDS011;53689;56.878;60.672;2022-07-12T10:16:49;18.75;;;13.30;;
62523;SDS011;53689;56.878;60.672;2022-07-12T10:19:24;20.08;;;13.75;;
62523;SDS011;53689;56.878;60.672;2022-07-12T10:21:55;23.95;;;15.18;;
62523;SDS011;53689;56.878;60.672;2022-07-12T10:27:31;21.07;;;14.33;;
62523;SDS011;53689;56.878;60.672;2022-07-12T10:32:50;20.77;;;14.38;;
62523;SDS011;53689;56.878;60.672;2022-07-12T10:35:20;18.55;;;12.95;;
62523;SDS011;53689;56.878;60.672;2022-07-12T10:40:44;20.67;;;15.07;;
62523;SDS011;53689;56.878;60.672;2022-07-12T10:43:13;26.15;;;15.65;;
62523;SDS011;53689;56.878;60.672;2022-07-12T10:45:58;21.48;;;14.57;;
62523;SDS011;53689;56.878;60.672;2022-07-12T10:48:40;28.05;;;15.68;;
62523;SDS011;53689;56.878;60.672;2022-07-12T10:51:14;20.73;;;14.27;;
62523;SDS011;53689;56.878;60.672;2022-07-12T10:53:42;20.75;;;12.68;;
62523;SDS011;53689;56.878;60.672;2022-07-12T10:56:11;27.77;;;15.70;;
62523;SDS011;53689;56.878;60.672;2022-07-12T10:58:41;25.98;;;17.40;;
62523;SDS011;53689;56.878;60.672;2022-07-12T11:01:09;23.85;;;15.38;;
62523;SDS011;53689;56.878;60.672;2022-07-12T11:03:39;28.98;;;19.50;;
62523;SDS011;53689;56.878;60.672;2022-07-12T11:06:09;29.55;;;19.23;;
62523;SDS011;53689;56.878;60.672;2022-07-12T11:08:47;28.83;;;18.45;;
62523;SDS011;53689;56.878;60.672;2022-07-12T11:11:17;29.27;;;17.23;;
62523;SDS011;53689;56.878;60.672;2022-07-12T11:13:45;25.67;;;16.58;;
62523;SDS011;53689;56.878;60.672;2022-07-12T11:16:15;31.92;;;19.95;;
62523;SDS011;53689;56.878;60.672;2022-07-12T11:18:48;33.80;;;20.90;;
62523;SDS011;53689;56.878;60.672;2022-07-12T11:21:16;30.35;;;19.02;;
62523;SDS011;53689;56.878;60.672;2022-07-12T11:23:44;31.73;;;20.85;;
62523;SDS011;53689;56.878;60.672;2022-07-12T11:26:12;25.73;;;17.13;;
62523;SDS011;53689;56.878;60.672;2022-07-12T11:28:42;34.70;;;20.13;;
62523;SDS011;53689;56.878;60.672;2022-07-12T11:31:11;28.95;;;18.85;;
62523;SDS011;53689;56.878;60.672;2022-07-12T11:33:40;26.45;;;17.50;;
62523;SDS011;53689;56.878;60.672;2022-07-12T11:36:09;27.40;;;17.40;;
62523;SDS011;53689;56.878;60.672;2022-07-12T11:38:38;28.33;;;17.27;;
62523;SDS011;53689;56.878;60.672;2022-07-12T11:41:10;27.20;;;15.65;;
62523;SDS011;53689;56.878;60.672;2022-07-12T11:43:38;26.48;;;15.23;;
62523;SDS011;53689;56.878;60.672;2022-07-12T11:46:08;26.27;;;16.17;;
62523;SDS011;53689;56.878;60.672;2022-07-12T11:48:37;25.63;;;16.23;;
62523;SDS011;53689;56.878;60.672;2022-07-12T11:51:05;34.08;;;19.55;;
62523;SDS011;53689;56.878;60.672;2022-07-12T11:53:34;26.30;;;16.52;;
62523;SDS011;53689;56.878;60.672;2022-07-12T11:56:03;30.05;;;17.70;;
62523;SDS011;53689;56.878;60.672;2022-07-12T11:58:32;33.30;;;19.77;;
62523;SDS011;53689;56.878;60.672;2022-07-12T12:01:01;29.55;;;18.58;;
62523;SDS011;53689;56.878;60.672;2022-07-12T12:03:29;32.55;;;17.98;;
62523;SDS011;53689;56.878;60.672;2022-07-12T12:05:56;30.85;;;18.98;;
62523;SDS011;53689;56.878;60.672;2022-07-12T12:08:24;34.95;;;19.13;;
62523;SDS011;53689;56.878;60.672;2022-07-12T12:10:52;35.50;;;19.70;;
62523;SDS011;53689;56.878;60.672;2022-07-12T12:13:21;32.13;;;18.50;;
62523;SDS011;53689;56.878;60.672;2022-07-12T12:15:49;32.85;;;18.67;;
62523;SDS011;53689;56.878;60.672;2022-07-12T12:18:28;24.05;;;16.13;;
62523;SDS011;53689;56.878;60.672;2022-07-12T12:20:57;32.30;;;17.95;;
62523;SDS011;53689;56.878;60.672;2022-07-12T12:23:26;29.27;;;17.45;;
62523;SDS011;53689;56.878;60.672;2022-07-12T12:26:07;24.17;;;15.63;;
62523;SDS011;53689;56.878;60.672;2022-07-12T12:28:46;28.92;;;17.23;;
62523;SDS011;53689;56.878;60.672;2022-07-12T12:31:14;27.00;;;15.25;;
62523;SDS011;53689;56.878;60.672;2022-07-12T12:33:45;27.45;;;15.00;;
62523;SDS011;53689;56.878;60.672;2022-07-12T12:36:14;27.42;;;15.70;;
62523;SDS011;53689;56.878;60.672;2022-07-12T12:38:46;25.27;;;16.00;;
62523;SDS011;53689;56.878;60.672;2022-07-12T12:41:15;27.67;;;16.27;;
62523;SDS011;53689;56.878;60.672;2022-07-12T12:43:43;27.13;;;15.45;;
62523;SDS011;53689;56.878;60.672;2022-07-12T12:46:14;26.20;;;15.68;;
62523;SDS011;53689;56.878;60.672;2022-07-12T12:48:50;23.65;;;15.52;;
62523;SDS011;53689;56.878;60.672;2022-07-12T12:51:17;25.83;;;14.75;;
62523;SDS011;53689;56.878;60.672;2022-07-12T12:53:54;24.20;;;15.38;;
62523;SDS011;53689;56.878;60.672;2022-07-12T12:56:22;20.23;;;14.15;;
62523;SDS011;53689;56.878;60.672;2022-07-12T12:58:49;20.90;;;14.40;;
62523;SDS011;53689;56.878;60.672;2022-07-12T13:01:17;23.65;;;14.93;;
62523;SDS011;53689;56.878;60.672;2022-07-12T13:03:44;24.25;;;14.60;;
62523;SDS011;53689;56.878;60.672;2022-07-12T13:06:13;19.85;;;13.05;;
62523;SDS011;53689;56.878;60.672;2022-07-12T13:08:41;21.90;;;14.10;;
62523;SDS011;53689;56.878;60.672;2022-07-12T13:11:09;22.70;;;13.88;;
62523;SDS011;53689;56.878;60.672;2022-07-12T13:13:37;19.52;;;13.05;;
62523;SDS011;53689;56.878;60.672;2022-07-12T13:16:05;22.13;;;13.77;;
62523;SDS011;53689;56.878;60.672;2022-07-12T13:18:33;22.45;;;13.80;;
62523;SDS011;53689;56.878;60.672;2022-07-12T13:21:01;19.77;;;13.98;;
62523;SDS011;53689;56.878;60.672;2022-07-12T13:23:30;22.60;;;14.32;;
62523;SDS011;53689;56.878;60.672;2022-07-12T13:25:57;21.67;;;13.57;;
62523;SDS011;53689;56.878;60.672;2022-07-12T13:28:25;23.30;;;13.75;;
62523;SDS011;53689;56.878;60.672;2022-07-12T13:30:53;20.75;;;13.98;;
62523;SDS011;53689;56.878;60.672;2022-07-12T13:33:20;30.13;;;16.48;;
62523;SDS011;53689;56.878;60.672;2022-07-12T13:35:48;23.33;;;15.02;;
62523;SDS011;53689;56.878;60.672;2022-07-12T13:38:16;23.23;;;13.98;;
62523;SDS011;53689;56.878;60.672;2022-07-12T13:40:44;21.20;;;14.35;;
62523;SDS011;53689;56.878;60.672;2022-07-12T13:43:12;26.40;;;14.27;;
62523;SDS011;53689;56.878;60.672;2022-07-12T13:45:39;23.20;;;14.40;;
62523;SDS011;53689;56.878;60.672;2022-07-12T13:48:07;24.23;;;14.43;;
62523;SDS011;53689;56.878;60.672;2022-07-12T13:50:34;22.30;;;14.45;;
62523;SDS011;53689;56.878;60.672;2022-07-12T13:53:02;21.33;;;13.75;;
62523;SDS011;53689;56.878;60.672;2022-07-12T13:55:29;28.23;;;17.23;;
62523;SDS011;53689;56.878;60.672;2022-07-12T13:57:58;27.83;;;16.25;;
62523;SDS011;53689;56.878;60.672;2022-07-12T14:00:26;19.50;;;13.52;;
62523;SDS011;53689;56.878;60.672;2022-07-12T14:02:53;27.52;;;14.93;;
62523;SDS011;53689;56.878;60.672;2022-07-12T14:05:21;18.48;;;13.05;;
62523;SDS011;53689;56.878;60.672;2022-07-12T14:07:49;21.95;;;13.50;;
62523;SDS011;53689;56.878;60.672;2022-07-12T14:10:17;20.73;;;13.13;;
62523;SDS011;53689;56.878;60.672;2022-07-12T14:12:44;21.05;;;13.65;;
62523;SDS011;53689;56.878;60.672;2022-07-12T14:15:14;19.30;;;11.85;;
62523;SDS011;53689;56.878;60.672;2022-07-12T14:17:42;16.42;;;10.57;;
62523;SDS011;53689;56.878;60.672;2022-07-12T14:20:11;15.80;;;11.38;;
62523;SDS011;53689;56.878;60.672;2022-07-12T14:22:39;15.32;;;11.20;;
62523;SDS011;53689;56.878;60.672;2022-07-12T14:25:07;18.95;;;12.05;;
62523;SDS011;53689;56.878;60.672;2022-07-12T14:27:36;13.10;;;10.38;;
62523;SDS011;53689;56.878;60.672;2022-07-12T14:30:05;15.32;;;10.45;;